Time;durP1;ratioP1;P1;durP2;ratioP2;P2;SDS_P1;SDS_P2;PMS_P1;PMS_P2;Temp;Humidity;BMP_temperature;BMP_pressure;BME280_temperature;BME280_humidity;BME280_pressure;Samples;Min_cycle;Max_cycle;Signal;HPM_P1;HPM_P2
2021/11/13 00:00:39;;;;;;;15.98;9.38;;;7.00;76.30;;;;;;5033871;28;20108;-83
2021/11/13 00:03:05;;;;;;;19.50;10.13;;;7.00;76.40;;;;;;5031860;28;20021;-83
2021/11/13 00:05:32;;;;;;;18.13;9.80;;;7.00;76.40;;;;;;5037434;28;20522;-83
2021/11/13 00:07:59;;;;;;;15.35;8.38;;;7.00;76.40;;;;;;5036792;28;20464;-83
2021/11/13 00:10:28;;;;;;;15.02;8.60;;;7.00;76.40;;;;;;5035461;28;20026;-84
2021/11/13 00:12:56;;;;;;;17.27;9.48;;;7.00;76.40;;;;;;5035447;28;20032;-83
2021/11/13 00:15:22;;;;;;;14.15;8.35;;;7.00;76.40;;;;;;5036498;28;20498;-82
2021/11/13 00:17:49;;;;;;;15.48;7.95;;;7.10;76.20;;;;;;5034583;28;20066;-83
2021/11/13 00:20:15;;;;;;;14.18;8.13;;;7.00;76.20;;;;;;5035263;28;20033;-83
2021/11/13 00:22:42;;;;;;;12.75;7.22;;;7.10;76.30;;;;;;5036873;28;20028;-84
2021/11/13 00:25:08;;;;;;;13.88;7.75;;;7.10;76.10;;;;;;5037005;28;20033;-84
2021/11/13 00:27:34;;;;;;;13.90;8.38;;;7.00;76.20;;;;;;5036641;28;20034;-84
2021/11/13 00:30:00;;;;;;;14.75;8.32;;;7.10;76.20;;;;;;5036222;28;20018;-84
2021/11/13 00:32:26;;;;;;;15.05;8.40;;;7.00;75.90;;;;;;5035044;28;20464;-84
2021/11/13 00:34:51;;;;;;;13.82;8.05;;;7.00;76.10;;;;;;5036310;28;20033;-83
2021/11/13 00:37:17;;;;;;;14.68;8.65;;;6.90;76.50;;;;;;5036140;28;20053;-84
2021/11/13 00:39:43;;;;;;;11.82;7.57;;;6.90;76.10;;;;;;5035117;28;20395;-83
2021/11/13 00:42:09;;;;;;;13.90;7.53;;;6.90;76.30;;;;;;5035027;28;20483;-83
2021/11/13 00:44:35;;;;;;;15.50;9.00;;;6.90;76.30;;;;;;5034700;28;20030;-82
2021/11/13 00:47:04;;;;;;;16.52;8.75;;;6.90;77.00;;;;;;5034851;28;20057;-82
2021/11/13 00:49:30;;;;;;;15.40;8.48;;;6.90;76.70;;;;;;5034773;28;20044;-84
2021/11/13 00:51:56;;;;;;;15.95;8.60;;;6.90;76.40;;;;;;5034528;28;20077;-84
2021/11/13 00:54:22;;;;;;;15.73;9.10;;;6.90;76.70;;;;;;5036214;28;20021;-83
2021/11/13 00:56:48;;;;;;;16.75;8.63;;;6.90;76.60;;;;;;5034539;28;20049;-83
2021/11/13 00:59:15;;;;;;;14.75;8.15;;;6.90;76.50;;;;;;5034339;28;20033;-81
2021/11/13 01:01:41;;;;;;;15.15;7.97;;;6.90;76.20;;;;;;5035774;28;20080;-82
2021/11/13 01:04:07;;;;;;;12.85;7.70;;;6.90;76.20;;;;;;5034523;28;20025;-82
2021/11/13 01:06:32;;;;;;;15.00;8.45;;;6.90;76.30;;;;;;5035490;28;20106;-82
2021/11/13 01:08:58;;;;;;;13.73;7.88;;;6.90;76.20;;;;;;5035918;28;20380;-82
2021/11/13 01:11:25;;;;;;;15.68;8.50;;;6.90;76.40;;;;;;5034348;28;20124;-83
2021/11/13 01:13:51;;;;;;;14.80;8.13;;;6.90;76.60;;;;;;5036148;28;20029;-84
2021/11/13 01:16:17;;;;;;;14.93;8.38;;;6.90;76.50;;;;;;5034668;28;20061;-83
2021/11/13 01:18:44;;;;;;;15.20;8.10;;;6.90;76.20;;;;;;5034571;28;20440;-84
2021/11/13 01:21:10;;;;;;;12.23;6.97;;;6.90;76.60;;;;;;5021705;28;20053;-84
2021/11/13 01:23:37;;;;;;;13.05;7.03;;;6.90;76.20;;;;;;5064769;28;20029;-85
2021/11/13 01:26:04;;;;;;;11.85;7.20;;;6.90;76.20;;;;;;5035710;28;20029;-84
2021/11/13 01:28:30;;;;;;;12.45;6.90;;;6.90;76.10;;;;;;5033385;28;20061;-83
2021/11/13 01:30:55;;;;;;;11.55;6.72;;;6.80;76.10;;;;;;5032947;28;20459;-83
2021/11/13 01:33:22;;;;;;;12.35;7.50;;;6.80;75.90;;;;;;5033906;28;20491;-83
2021/11/13 01:35:49;;;;;;;10.90;6.43;;;6.80;75.90;;;;;;5032998;28;20025;-84
2021/11/13 01:38:16;;;;;;;10.80;6.30;;;6.80;75.90;;;;;;5034547;28;20029;-83
2021/11/13 01:40:41;;;;;;;12.75;7.03;;;6.80;75.80;;;;;;5033849;28;20033;-83
2021/11/13 01:43:07;;;;;;;11.18;6.53;;;6.70;76.00;;;;;;5034937;28;20036;-83
2021/11/13 01:45:33;;;;;;;14.40;7.57;;;6.70;76.20;;;;;;5034683;28;20073;-83
2021/11/13 01:47:59;;;;;;;12.07;6.93;;;6.60;76.40;;;;;;5033985;28;20456;-84
2021/11/13 01:50:31;;;;;;;14.57;7.40;;;6.60;76.70;;;;;;5034125;28;20021;-83
2021/11/13 01:52:57;;;;;;;13.90;7.55;;;6.60;76.60;;;;;;5035364;28;20037;-82
2021/11/13 01:55:24;;;;;;;12.35;7.10;;;6.70;76.80;;;;;;5037362;28;20479;-82
2021/11/13 01:57:51;;;;;;;12.90;7.45;;;6.60;76.50;;;;;;5038441;28;20060;-83
2021/11/13 02:00:31;;;;;;;13.18;7.80;;;6.60;76.50;;;;;;5040394;28;20140;-83
2021/11/13 02:02:57;;;;;;;13.05;7.15;;;6.60;76.90;;;;;;5050786;28;20034;-83
2021/11/13 02:05:23;;;;;;;13.70;8.02;;;6.60;76.70;;;;;;5085884;28;20552;-83
2021/11/13 02:07:49;;;;;;;12.90;7.47;;;6.60;76.90;;;;;;5053000;28;20033;-84
2021/11/13 02:10:17;;;;;;;15.00;8.32;;;6.60;76.90;;;;;;5053826;28;20037;-83
2021/11/13 02:12:43;;;;;;;12.85;7.55;;;6.60;76.90;;;;;;5054893;28;20043;-83
2021/11/13 02:15:09;;;;;;;14.82;7.85;;;6.60;76.80;;;;;;5052135;28;20029;-85
2021/11/13 02:17:35;;;;;;;11.95;6.82;;;6.60;76.80;;;;;;5050824;28;20084;-83
2021/11/13 02:20:19;;;;;;;13.52;7.70;;;6.60;76.80;;;;;;5050428;28;20060;-83
2021/11/13 02:22:45;;;;;;;13.73;6.93;;;6.60;77.20;;;;;;5041296;28;20102;-83
2021/11/13 02:25:15;;;;;;;10.63;6.32;;;6.50;76.60;;;;;;5032665;28;20428;-83
2021/11/13 02:27:41;;;;;;;12.60;7.03;;;6.50;76.50;;;;;;5033602;28;20079;-82
2021/11/13 02:30:08;;;;;;;12.77;7.78;;;6.50;76.90;;;;;;5034485;28;20418;-83
2021/11/13 02:32:33;;;;;;;14.10;7.70;;;6.50;77.40;;;;;;5033967;28;20057;-83
2021/11/13 02:34:59;;;;;;;12.82;7.38;;;6.50;77.00;;;;;;5033765;28;20507;-84
2021/11/13 02:37:35;;;;;;;12.23;6.82;;;6.50;76.90;;;;;;5033388;28;20456;-83
2021/11/13 02:40:03;;;;;;;12.93;6.95;;;6.50;76.80;;;;;;5033503;28;20427;-83
2021/11/13 02:42:29;;;;;;;10.57;6.18;;;6.50;76.80;;;;;;5034534;28;20418;-82
2021/11/13 02:44:55;;;;;;;12.50;6.38;;;6.50;76.80;;;;;;5015546;28;20030;-82
2021/11/13 02:47:21;;;;;;;11.23;6.70;;;6.50;76.70;;;;;;5033779;28;20033;-82
2021/11/13 02:49:48;;;;;;;11.55;6.70;;;6.50;76.70;;;;;;5032302;28;20360;-82
2021/11/13 02:52:14;;;;;;;14.98;7.75;;;6.50;76.50;;;;;;5033137;28;20372;-83
2021/11/13 02:54:48;;;;;;;14.50;7.25;;;6.50;76.40;;;;;;5033041;28;20079;-84
2021/11/13 02:57:15;;;;;;;11.52;6.65;;;6.50;76.70;;;;;;5033089;28;20483;-84
2021/11/13 02:59:49;;;;;;;12.73;7.30;;;6.40;76.40;;;;;;5032382;28;20099;-85
2021/11/13 03:02:15;;;;;;;12.07;7.03;;;6.40;76.70;;;;;;5033432;28;20028;-83
2021/11/13 03:04:42;;;;;;;13.00;6.90;;;6.40;76.60;;;;;;5031606;28;20031;-85
2021/11/13 03:07:08;;;;;;;13.27;7.18;;;6.40;76.60;;;;;;5031992;28;20075;-83
2021/11/13 03:09:37;;;;;;;11.90;6.90;;;6.40;76.70;;;;;;5031310;28;20103;-83
2021/11/13 03:12:03;;;;;;;10.32;6.30;;;6.40;76.80;;;;;;5031648;28;20428;-84
2021/11/13 03:14:30;;;;;;;12.00;6.35;;;6.40;76.80;;;;;;5030858;28;20026;-82
2021/11/13 03:17:02;;;;;;;9.48;5.55;;;6.40;76.90;;;;;;5032733;28;20472;-82
2021/11/13 03:19:28;;;;;;;10.70;6.53;;;6.40;76.80;;;;;;5031473;28;20029;-82
2021/11/13 03:21:53;;;;;;;12.68;6.45;;;6.40;77.50;;;;;;5031334;28;20124;-83
2021/11/13 03:24:21;;;;;;;12.27;6.57;;;6.40;76.90;;;;;;5031462;28;20022;-84
2021/11/13 03:26:48;;;;;;;13.95;7.28;;;6.40;76.80;;;;;;5031497;28;20472;-82
2021/11/13 03:29:22;;;;;;;13.45;7.93;;;6.40;77.20;;;;;;5031304;28;20437;-83
2021/11/13 03:31:48;;;;;;;11.40;6.93;;;6.40;77.50;;;;;;5031308;28;20025;-83
2021/11/13 03:34:14;;;;;;;11.43;7.07;;;6.40;77.10;;;;;;5032915;28;20036;-84
2021/11/13 03:36:39;;;;;;;13.77;7.80;;;6.40;77.20;;;;;;5028271;28;20034;-81
2021/11/13 03:39:06;;;;;;;13.10;6.68;;;6.30;77.20;;;;;;5023928;28;20141;-82
2021/11/13 03:41:33;;;;;;;12.15;6.57;;;6.30;77.10;;;;;;5017614;28;20060;-82
2021/11/13 03:43:59;;;;;;;11.80;6.30;;;6.30;77.30;;;;;;5048273;28;20460;-82
2021/11/13 03:46:25;;;;;;;11.05;6.43;;;6.20;77.30;;;;;;5016106;28;20411;-83
2021/11/13 03:48:51;;;;;;;13.75;7.00;;;6.20;77.40;;;;;;5031936;28;20411;-85
2021/11/13 03:51:17;;;;;;;13.18;7.68;;;6.20;77.50;;;;;;5048713;28;20033;-84
2021/11/13 03:53:44;;;;;;;16.17;8.00;;;6.20;77.50;;;;;;5031721;28;20026;-83
2021/11/13 03:56:10;;;;;;;13.90;7.85;;;6.10;77.70;;;;;;5016472;28;20376;-84
2021/11/13 03:58:35;;;;;;;12.50;7.15;;;6.10;77.80;;;;;;5016399;28;20050;-83
2021/11/13 04:01:02;;;;;;;11.95;7.05;;;6.10;78.00;;;;;;5031963;28;20463;-83
2021/11/13 04:03:28;;;;;;;11.05;6.40;;;6.10;77.80;;;;;;5016948;28;20037;-84
2021/11/13 04:05:54;;;;;;;14.70;7.93;;;6.10;77.80;;;;;;5016499;28;20030;-84
2021/11/13 04:08:19;;;;;;;13.60;7.32;;;6.00;78.80;;;;;;5016031;28;20030;-83
2021/11/13 04:10:45;;;;;;;13.30;7.32;;;6.10;78.20;;;;;;5047874;28;20033;-85
2021/11/13 04:13:12;;;;;;;15.40;8.20;;;6.00;78.30;;;;;;5016673;28;20082;-85
2021/11/13 04:15:37;;;;;;;13.57;7.20;;;6.00;78.80;;;;;;5016066;28;20057;-83
2021/11/13 04:18:03;;;;;;;15.20;8.82;;;6.00;78.40;;;;;;5014826;28;20468;-82
2021/11/13 04:20:29;;;;;;;14.23;7.90;;;6.00;78.70;;;;;;5047644;28;20076;-83
2021/11/13 04:22:55;;;;;;;13.25;7.30;;;5.90;78.60;;;;;;5047888;28;20034;-82
2021/11/13 04:25:22;;;;;;;14.98;8.30;;;5.90;78.40;;;;;;5016811;28;20022;-83
2021/11/13 04:27:49;;;;;;;11.98;7.35;;;5.90;78.80;;;;;;5047523;28;20041;-83
2021/11/13 04:30:15;;;;;;;13.55;7.85;;;5.80;78.60;;;;;;5015017;28;20096;-83
2021/11/13 04:32:43;;;;;;;15.25;8.82;;;5.80;79.00;;;;;;5047797;28;20022;-82
2021/11/13 04:35:44;;;;;;;15.95;9.05;;;5.80;79.20;;;;;;5015442;28;20353;-83
2021/11/13 04:38:01;;;;;;;12.90;7.60;;;5.70;79.30;;;;;;5016445;28;20129;-84
2021/11/13 04:40:31;;;;;;;14.07;7.65;;;5.70;79.10;;;;;;5015316;28;20050;-85
2021/11/13 04:42:56;;;;;;;13.20;6.82;;;5.60;78.90;;;;;;5016073;28;20030;-84
2021/11/13 04:45:23;;;;;;;12.60;7.18;;;5.50;79.30;;;;;;5015427;28;20079;-84
2021/11/13 04:47:49;;;;;;;12.13;6.38;;;5.40;79.30;;;;;;5014223;28;20042;-84
2021/11/13 04:50:18;;;;;;;13.93;7.85;;;5.40;79.20;;;;;;5046746;28;20052;-84
2021/11/13 04:52:46;;;;;;;13.13;7.28;;;5.40;80.00;;;;;;5047487;28;20436;-83
2021/11/13 04:55:13;;;;;;;12.52;7.28;;;5.30;79.60;;;;;;5049713;28;20102;-84
2021/11/13 04:57:40;;;;;;;10.82;6.45;;;5.30;79.60;;;;;;5035548;28;20049;-83
2021/11/13 05:00:09;;;;;;;10.15;6.38;;;5.20;79.50;;;;;;5034715;28;20026;-85
2021/11/13 05:02:35;;;;;;;10.73;6.40;;;5.20;80.00;;;;;;5035872;28;20041;-84
2021/11/13 05:05:01;;;;;;;12.55;6.82;;;5.20;80.10;;;;;;5036073;28;20025;-85
2021/11/13 05:07:27;;;;;;;11.52;6.70;;;5.20;80.60;;;;;;5036572;28;20025;-82
2021/11/13 05:09:55;;;;;;;11.60;7.05;;;5.20;80.70;;;;;;5036376;28;20530;-83
2021/11/13 05:12:21;;;;;;;13.55;7.28;;;5.20;80.80;;;;;;5034410;28;20040;-83
2021/11/13 05:14:47;;;;;;;13.60;7.35;;;5.20;81.10;;;;;;5035497;28;20033;-84
2021/11/13 05:17:14;;;;;;;12.98;7.35;;;5.20;81.20;;;;;;5034868;28;20071;-83
2021/11/13 05:19:41;;;;;;;14.32;7.68;;;5.20;81.10;;;;;;5017855;28;20395;-84
2021/11/13 05:22:11;;;;;;;14.27;7.55;;;5.20;81.60;;;;;;5035753;28;20419;-84
2021/11/13 05:24:37;;;;;;;13.55;7.68;;;5.30;81.60;;;;;;5035035;28;20033;-84
2021/11/13 05:27:03;;;;;;;14.55;8.27;;;5.30;81.60;;;;;;5033926;28;20092;-83
2021/11/13 05:29:29;;;;;;;13.18;7.25;;;5.30;82.20;;;;;;5034357;28;20025;-83
2021/11/13 05:31:55;;;;;;;11.20;6.75;;;5.40;81.60;;;;;;5033979;28;20029;-83
2021/11/13 05:34:21;;;;;;;13.73;7.18;;;5.50;81.60;;;;;;5033630;28;20387;-83
2021/11/13 05:36:48;;;;;;;13.13;7.32;;;5.50;81.30;;;;;;5034736;28;20124;-84
2021/11/13 05:39:14;;;;;;;11.98;7.53;;;5.60;81.30;;;;;;5033889;28;20080;-83
2021/11/13 05:41:41;;;;;;;14.05;8.13;;;5.60;81.30;;;;;;5033667;28;20036;-84
2021/11/13 05:44:07;;;;;;;15.00;8.48;;;5.70;81.30;;;;;;5017743;28;20463;-85
2021/11/13 05:46:34;;;;;;;13.23;7.53;;;5.70;81.30;;;;;;5033790;28;20049;-89
2021/11/13 05:48:59;;;;;;;16.63;9.35;;;5.70;81.10;;;;;;5033203;28;20426;-88
2021/11/13 05:51:25;;;;;;;14.43;8.45;;;5.80;81.90;;;;;;5034281;28;20029;-85
2021/11/13 05:53:51;;;;;;;18.10;9.80;;;5.80;81.20;;;;;;5023301;28;20024;-83
2021/11/13 05:56:17;;;;;;;20.60;11.38;;;5.90;81.40;;;;;;5024343;28;20114;-83
2021/11/13 05:58:44;;;;;;;20.90;11.52;;;5.90;81.50;;;;;;5063256;28;20053;-81
2021/11/13 06:01:09;;;;;;;19.40;9.70;;;6.00;81.20;;;;;;5026219;28;20022;-81
2021/11/13 06:03:35;;;;;;;19.52;11.00;;;6.00;80.90;;;;;;5016462;28;20453;-82
2021/11/13 06:06:01;;;;;;;22.20;11.63;;;6.00;81.00;;;;;;5064659;28;20683;-81
2021/11/13 06:08:27;;;;;;;17.63;9.57;;;6.00;81.10;;;;;;5036297;28;20038;-82
2021/11/13 06:10:53;;;;;;;18.88;9.85;;;6.00;80.70;;;;;;5035912;28;20033;-82
2021/11/13 06:13:19;;;;;;;17.00;9.05;;;6.10;80.70;;;;;;5035557;28;20077;-83
2021/11/13 06:15:45;;;;;;;19.15;9.27;;;6.10;80.70;;;;;;5032873;28;20060;-82
2021/11/13 06:18:11;;;;;;;16.45;9.30;;;6.10;80.70;;;;;;5033326;28;20072;-83
2021/11/13 06:20:37;;;;;;;15.52;9.20;;;6.10;81.10;;;;;;5035412;28;20029;-84
2021/11/13 06:23:03;;;;;;;13.65;8.18;;;6.20;80.70;;;;;;5034841;28;20028;-83
2021/11/13 06:25:29;;;;;;;15.95;8.05;;;6.30;80.60;;;;;;5033437;28;20440;-83
2021/11/13 06:27:55;;;;;;;16.10;9.77;;;6.30;80.40;;;;;;5033456;28;20033;-84
2021/11/13 06:30:21;;;;;;;17.08;9.73;;;6.30;80.60;;;;;;5032905;28;20070;-84
2021/11/13 06:32:51;;;;;;;17.75;9.90;;;6.40;80.80;;;;;;5034241;28;20036;-85
2021/11/13 06:35:17;;;;;;;14.35;8.38;;;6.60;80.60;;;;;;5034484;28;20411;-81
2021/11/13 06:37:43;;;;;;;13.25;8.10;;;6.60;80.50;;;;;;5033168;28;20040;-82
2021/11/13 06:40:11;;;;;;;12.63;7.30;;;6.80;80.30;;;;;;5032493;28;20030;-82
2021/11/13 06:42:37;;;;;;;14.45;8.75;;;6.80;80.10;;;;;;5033383;28;20037;-82
2021/11/13 06:45:08;;;;;;;19.52;10.60;;;6.90;80.00;;;;;;5033024;28;20025;-80
2021/11/13 06:47:37;;;;;;;;;;;7.00;79.90;;;;;;5032682;28;20080;-81
2021/11/13 06:50:05;;;;;;;23.40;14.10;;;7.00;79.50;;;;;;5031940;28;19912;-81
2021/11/13 06:52:31;;;;;;;22.33;12.73;;;7.20;80.00;;;;;;5032061;28;20120;-80
2021/11/13 06:54:57;;;;;;;19.85;10.93;;;7.30;79.50;;;;;;5031961;28;20067;-82
2021/11/13 06:57:25;;;;;;;16.33;9.73;;;7.40;79.20;;;;;;5031972;28;20049;-80
2021/11/13 06:59:51;;;;;;;17.75;10.35;;;7.60;79.30;;;;;;5033647;28;20032;-83
2021/11/13 07:02:17;;;;;;;15.32;8.57;;;7.80;79.50;;;;;;5032929;28;20375;-82
2021/11/13 07:04:45;;;;;;;18.50;10.13;;;8.00;79.00;;;;;;5032882;28;20448;-82
2021/11/13 07:07:14;;;;;;;17.25;10.55;;;8.10;78.50;;;;;;5032465;28;20029;-83
2021/11/13 07:09:41;;;;;;;16.65;8.90;;;8.30;78.80;;;;;;5033442;28;20041;-82
2021/11/13 07:12:18;;;;;;;14.63;9.13;;;8.70;79.70;;;;;;5036999;28;20506;-84
2021/11/13 07:14:44;;;;;;;13.05;8.45;;;9.10;77.50;;;;;;5042240;28;20025;-83
2021/11/13 07:17:13;;;;;;;14.30;8.80;;;9.30;77.30;;;;;;5047844;28;20026;-84
2021/11/13 07:26:06;;;;;;;13.52;8.23;;;10.40;74.70;;;;;;5019540;28;20041;-83
2021/11/13 07:28:37;;;;;;;13.25;7.90;;;11.00;77.10;;;;;;5059350;28;20105;-84
2021/11/13 07:31:04;;;;;;;16.70;9.88;;;11.40;76.10;;;;;;5058475;28;20032;-84
2021/11/13 07:33:30;;;;;;;17.67;10.10;;;11.90;73.80;;;;;;5055447;28;20009;-85
2021/11/13 07:35:56;;;;;;;19.65;10.63;;;12.30;73.00;;;;;;5080804;28;20089;-82
2021/11/13 07:38:22;;;;;;;17.63;9.38;;;12.70;71.40;;;;;;5040871;28;20102;-82
2021/11/13 07:40:47;;;;;;;16.40;9.43;;;13.00;70.70;;;;;;5037229;28;20059;-80
2021/11/13 07:43:13;;;;;;;18.48;11.18;;;13.30;69.00;;;;;;5036230;28;20021;-83
2021/11/13 07:45:39;;;;;;;17.63;10.98;;;13.50;67.80;;;;;;5035591;28;20030;-86
2021/11/13 07:48:07;;;;;;;14.45;8.82;;;13.80;66.70;;;;;;5019427;28;20478;-86
2021/11/13 07:50:35;;;;;;;16.98;10.05;;;14.10;67.10;;;;;;5035633;28;20529;-85
2021/11/13 07:53:03;;;;;;;14.90;9.32;;;14.30;64.20;;;;;;5036561;28;20025;-85
2021/11/13 07:55:28;;;;;;;13.98;8.90;;;14.50;63.70;;;;;;5037631;28;20025;-86
2021/11/13 07:57:55;;;;;;;13.48;7.95;;;14.80;62.40;;;;;;5037169;28;20447;-85
2021/11/13 08:00:22;;;;;;;12.48;7.80;;;15.00;61.90;;;;;;5035618;28;20095;-84
2021/11/13 08:02:48;;;;;;;12.45;7.70;;;15.10;60.90;;;;;;5036186;28;20411;-82
2021/11/13 08:05:15;;;;;;;13.00;7.78;;;15.20;60.40;;;;;;5038084;28;20038;-82
2021/11/13 08:07:43;;;;;;;10.68;7.65;;;15.40;59.80;;;;;;5035283;28;20029;-82
2021/11/13 08:10:10;;;;;;;14.70;8.63;;;15.60;59.10;;;;;;5036181;28;20085;-81
2021/11/13 08:12:37;;;;;;;11.40;7.82;;;15.80;57.90;;;;;;5031248;28;20487;-81
2021/11/13 08:15:05;;;;;;;13.15;7.90;;;15.90;57.80;;;;;;5014778;28;20025;-81
2021/11/13 08:17:30;;;;;;;17.38;9.02;;;16.10;57.50;;;;;;5017037;28;20033;-84
2021/11/13 08:19:56;;;;;;;15.25;9.73;;;16.20;56.60;;;;;;5034756;28;20025;-82
2021/11/13 08:22:22;;;;;;;22.80;15.38;;;16.10;55.40;;;;;;5035017;28;20123;-80
2021/11/13 08:24:49;;;;;;;15.10;10.15;;;16.20;54.80;;;;;;5035752;28;20060;-82
2021/11/13 08:27:15;;;;;;;14.98;9.68;;;16.10;54.60;;;;;;5038930;28;20061;-80
2021/11/13 08:29:41;;;;;;;13.82;8.63;;;16.20;54.80;;;;;;5038768;28;20376;-81
2021/11/13 08:32:07;;;;;;;13.85;9.40;;;16.30;54.60;;;;;;5037322;28;20037;-80
2021/11/13 08:34:35;;;;;;;13.65;8.73;;;16.60;54.00;;;;;;5034424;28;20127;-82
2021/11/13 08:37:02;;;;;;;12.85;8.48;;;16.90;53.70;;;;;;5023513;28;20040;-83
2021/11/13 08:39:33;;;;;;;13.68;9.48;;;17.10;53.30;;;;;;5024612;28;20486;-84
2021/11/13 08:42:00;;;;;;;10.75;7.43;;;17.30;52.30;;;;;;5033954;28;20418;-85
2021/11/13 08:44:26;;;;;;;11.27;7.75;;;17.70;52.40;;;;;;5034334;28;20041;-84
2021/11/13 08:46:55;;;;;;;10.90;7.72;;;18.00;51.90;;;;;;5032979;28;20041;-82
2021/11/13 08:49:22;;;;;;;11.68;7.72;;;18.10;50.90;;;;;;5035031;28;20456;-82
2021/11/13 08:51:47;;;;;;;11.75;7.55;;;18.10;50.80;;;;;;5033653;28;20026;-84
2021/11/13 08:54:13;;;;;;;24.70;15.55;;;17.90;50.80;;;;;;5035059;28;20018;-84
2021/11/13 08:56:39;;;;;;;24.42;17.58;;;17.80;50.80;;;;;;5034269;28;20026;-82
2021/11/13 08:59:05;;;;;;;15.20;11.30;;;17.90;50.80;;;;;;5034631;28;20140;-81
2021/11/13 09:01:32;;;;;;;12.50;8.63;;;18.10;50.10;;;;;;5033646;28;20044;-83
2021/11/13 09:03:58;;;;;;;10.38;7.68;;;18.30;50.00;;;;;;5033652;28;20037;-84
2021/11/13 09:06:29;;;;;;;9.52;7.10;;;18.40;49.00;;;;;;5034084;28;20026;-84
2021/11/13 09:08:55;;;;;;;11.50;7.38;;;18.60;49.10;;;;;;5034074;28;20113;-83
2021/11/13 09:11:24;;;;;;;15.20;8.57;;;18.70;48.50;;;;;;5034036;28;20105;-83
2021/11/13 09:13:50;;;;;;;12.13;8.23;;;18.80;48.30;;;;;;5031412;28;20517;-83
2021/11/13 09:16:16;;;;;;;11.20;7.25;;;19.00;47.70;;;;;;5033417;28;20022;-82
2021/11/13 09:18:44;;;;;;;12.18;7.38;;;19.20;47.60;;;;;;5033861;28;20069;-83
2021/11/13 09:21:11;;;;;;;11.90;7.22;;;19.30;47.30;;;;;;5034457;28;20017;-83
2021/11/13 09:23:37;;;;;;;12.23;8.15;;;19.40;47.10;;;;;;5032617;28;20099;-83
2021/11/13 09:26:06;;;;;;;14.18;8.55;;;19.30;46.50;;;;;;5033905;28;20022;-84
2021/11/13 09:28:32;;;;;;;13.27;8.57;;;19.20;46.20;;;;;;5034311;28;20025;-83
2021/11/13 09:31:00;;;;;;;12.13;8.52;;;19.30;46.40;;;;;;5035005;28;20032;-82
2021/11/13 09:33:27;;;;;;;12.98;9.32;;;19.50;46.40;;;;;;5033683;28;20029;-82
2021/11/13 09:35:54;;;;;;;15.30;10.20;;;19.80;46.30;;;;;;5033304;28;20043;-83
2021/11/13 09:38:26;;;;;;;13.57;10.20;;;19.90;45.60;;;;;;5032731;28;20040;-83
2021/11/13 09:40:53;;;;;;;14.80;10.00;;;19.90;45.50;;;;;;5067335;28;20464;-83
2021/11/13 09:43:22;;;;;;;15.50;10.35;;;19.80;45.80;;;;;;5034389;28;20101;-83
2021/11/13 09:45:48;;;;;;;12.05;8.95;;;19.60;45.50;;;;;;5034930;28;20124;-83
2021/11/13 09:48:15;;;;;;;14.00;8.63;;;19.60;45.90;;;;;;5033332;28;20056;-83
2021/11/13 09:50:45;;;;;;;14.98;9.60;;;19.60;45.90;;;;;;5034457;28;20038;-82
2021/11/13 09:53:11;;;;;;;14.20;9.45;;;19.70;45.70;;;;;;5033295;28;20060;-83
2021/11/13 09:55:37;;;;;;;14.50;9.30;;;19.80;45.70;;;;;;5033556;28;20041;-82
2021/11/13 09:58:03;;;;;;;14.20;9.57;;;20.00;45.50;;;;;;5032777;28;20057;-82
2021/11/13 10:00:35;;;;;;;13.15;9.80;;;20.10;45.20;;;;;;5034476;28;20033;-83
2021/11/13 10:03:01;;;;;;;13.52;9.20;;;20.40;44.70;;;;;;5032972;28;20030;-83
2021/11/13 10:05:27;;;;;;;15.50;9.50;;;20.50;44.30;;;;;;5033239;28;20047;-81
2021/11/13 10:07:53;;;;;;;14.23;10.00;;;20.60;44.20;;;;;;5033063;28;20033;-82
2021/11/13 10:10:36;;;;;;;13.65;9.88;;;20.60;43.90;;;;;;5034874;28;20021;-82
2021/11/13 10:13:05;;;;;;;16.92;9.32;;;20.60;41.80;;;;;;5032996;28;20053;-83
2021/11/13 10:15:39;;;;;;;13.70;9.73;;;20.60;44.00;;;;;;5034846;28;20180;-83
2021/11/13 10:18:05;;;;;;;13.00;8.90;;;20.70;42.80;;;;;;5034152;28;20033;-81
2021/11/13 10:20:31;;;;;;;13.15;9.25;;;20.60;43.60;;;;;;5032661;28;20034;-81
2021/11/13 10:22:57;;;;;;;16.25;9.48;;;20.70;43.50;;;;;;5033805;28;20029;-81
2021/11/13 10:25:22;;;;;;;13.02;9.30;;;20.70;43.30;;;;;;5034106;28;20502;-82
2021/11/13 10:28:15;;;;;;;13.27;9.05;;;20.80;43.30;;;;;;5032747;28;20072;-81
2021/11/13 10:30:42;;;;;;;12.07;8.85;;;20.70;41.50;;;;;;5034504;28;20021;-80
2021/11/13 10:33:08;;;;;;;14.65;9.77;;;20.60;43.20;;;;;;5033672;28;20026;-82
2021/11/13 10:35:40;;;;;;;14.98;9.90;;;20.50;43.10;;;;;;5034071;28;20108;-82
2021/11/13 10:38:18;;;;;;;15.05;9.75;;;20.40;42.70;;;;;;5034258;28;20483;-82
2021/11/13 10:41:00;;;;;;;14.75;9.93;;;20.40;41.90;;;;;;5034139;28;20460;-83
2021/11/13 10:43:31;;;;;;;13.73;10.30;;;20.50;42.90;;;;;;5033944;28;20146;-83
2021/11/13 10:46:09;;;;;;;15.07;9.80;;;20.70;42.20;;;;;;5033678;28;20025;-82
2021/11/13 10:48:37;;;;;;;15.43;10.48;;;20.90;42.50;;;;;;5033375;28;20025;-82
2021/11/13 10:51:10;;;;;;;15.90;11.10;;;20.80;42.20;;;;;;5033697;28;20030;-82
2021/11/13 10:53:36;;;;;;;14.77;10.70;;;20.70;42.30;;;;;;5033663;28;20052;-82
2021/11/13 10:56:10;;;;;;;13.85;9.88;;;20.60;42.50;;;;;;5033673;28;20084;-82
2021/11/13 10:58:52;;;;;;;15.80;11.00;;;20.80;42.30;;;;;;5032027;28;20064;-83
2021/11/13 11:01:23;;;;;;;;;;;20.90;42.00;;;;;;5066181;28;20037;-82
2021/11/13 11:03:51;;;;;;;16.33;10.45;;;20.70;40.20;;;;;;5033712;28;19912;-82
2021/11/13 11:06:25;;;;;;;15.05;10.60;;;20.90;42.20;;;;;;5065495;28;20056;-83
2021/11/13 11:08:51;;;;;;;14.43;10.80;;;21.20;40.80;;;;;;5065522;28;20494;-82
2021/11/13 11:11:28;;;;;;;14.20;10.70;;;21.20;41.30;;;;;;5031557;28;20029;-82
2021/11/13 11:13:56;;;;;;;15.27;10.88;;;21.00;39.90;;;;;;5065286;28;20041;-82
2021/11/13 11:16:26;;;;;;;15.88;11.05;;;20.70;41.60;;;;;;5065003;28;20464;-82
2021/11/13 11:19:00;;;;;;;13.07;10.32;;;20.60;41.10;;;;;;5065303;28;20498;-82
2021/11/13 11:21:47;;;;;;;13.85;9.60;;;20.70;42.60;;;;;;5033425;28;20493;-83
2021/11/13 11:24:36;;;;;;;14.98;10.70;;;20.90;40.20;;;;;;5032002;28;20029;-82
2021/11/13 11:27:09;;;;;;;14.38;10.57;;;20.70;41.60;;;;;;5028790;28;20387;-82
2021/11/13 11:29:43;;;;;;;15.13;10.38;;;20.70;41.80;;;;;;5066362;28;20116;-82
2021/11/13 11:32:11;;;;;;;17.67;10.88;;;20.80;41.80;;;;;;5033408;28;20079;-83
2021/11/13 11:34:40;;;;;;;15.45;10.73;;;20.90;41.60;;;;;;5033670;28;20030;-82
2021/11/13 11:37:11;;;;;;;16.77;10.45;;;20.90;41.20;;;;;;5031703;28;20036;-82
2021/11/13 11:39:37;;;;;;;16.90;10.55;;;21.00;41.00;;;;;;5032967;28;20052;-82
2021/11/13 11:42:04;;;;;;;13.93;10.23;;;21.00;41.20;;;;;;5065336;28;20048;-83
2021/11/13 11:44:31;;;;;;;15.48;10.30;;;21.10;41.00;;;;;;5032044;28;20057;-82
2021/11/13 11:46:58;;;;;;;15.88;11.07;;;21.10;41.00;;;;;;5065835;28;20025;-82
2021/11/13 11:49:25;;;;;;;16.30;11.10;;;21.10;40.80;;;;;;5066379;28;20034;-82
2021/11/13 11:51:51;;;;;;;15.07;10.77;;;21.10;40.80;;;;;;5064753;28;20025;-82
2021/11/13 11:54:17;;;;;;;15.70;10.35;;;21.10;40.80;;;;;;5065142;28;20116;-82
2021/11/13 11:56:44;;;;;;;15.23;10.55;;;21.10;41.20;;;;;;5064861;28;20116;-83
2021/11/13 11:59:10;;;;;;;15.05;10.70;;;21.20;41.60;;;;;;5065350;28;20138;-82
2021/11/13 12:01:42;;;;;;;15.85;11.27;;;21.30;41.30;;;;;;5036447;28;20159;-82
2021/11/13 12:04:24;;;;;;;15.77;10.57;;;21.50;41.40;;;;;;5036801;28;20029;-83
2021/11/13 12:06:53;;;;;;;24.70;17.02;;;21.60;40.10;;;;;;5035506;28;20025;-82
2021/11/13 12:09:20;;;;;;;22.43;19.07;;;21.40;40.90;;;;;;5070328;28;20111;-82
2021/11/13 12:11:48;;;;;;;39.35;35.33;;;21.30;41.00;;;;;;5069036;28;20164;-81
2021/11/13 12:14:34;;;;;;;43.60;39.03;;;21.30;42.30;;;;;;5035778;28;20033;-82
2021/11/13 12:17:24;;;;;;;44.92;40.42;;;21.20;41.10;;;;;;5035556;28;20060;-82
2021/11/13 12:20:05;;;;;;;54.35;49.20;;;21.20;42.20;;;;;;5069336;28;20030;-82
2021/11/13 12:22:44;;;;;;;26.00;23.20;;;21.20;42.60;;;;;;5069334;28;20042;-82
2021/11/13 12:25:30;;;;;;;22.58;18.10;;;21.10;41.20;;;;;;5069654;28;20068;-81
2021/11/13 12:28:07;;;;;;;23.45;20.13;;;20.70;41.60;;;;;;5037633;28;20452;-81
2021/11/13 12:30:39;;;;;;;28.25;25.35;;;20.30;41.30;;;;;;5037585;28;20024;-81
2021/11/13 12:33:25;;;;;;;22.27;17.70;;;20.00;42.40;;;;;;5041246;28;20021;-82
2021/11/13 12:35:55;;;;;;;29.63;24.08;;;19.70;43.30;;;;;;5086333;28;20026;-82
2021/11/13 12:38:55;;;;;;;35.78;31.13;;;19.60;43.00;;;;;;5091974;28;20041;-80
2021/11/13 12:41:43;;;;;;;29.20;24.52;;;19.40;45.00;;;;;;5059662;28;20017;-79
2021/11/13 12:44:11;;;;;;;27.20;21.00;;;19.30;43.70;;;;;;5091729;28;20041;-80
2021/11/13 12:46:50;;;;;;;24.55;18.35;;;19.40;43.70;;;;;;5058737;28;20044;-81
2021/11/13 12:49:19;;;;;;;26.55;19.23;;;19.50;43.00;;;;;;5059412;28;20021;-81
2021/11/13 12:52:00;;;;;;;22.35;16.20;;;19.30;43.50;;;;;;5090064;28;20068;-81